createdAt,value
2024-02-09T00:00:44.464Z,9.93
2024-02-09T00:03:36.916Z,8.65
2024-02-09T00:06:07.643Z,9.50
2024-02-09T00:08:41.943Z,8.65
2024-02-09T00:11:13.514Z,8.48
2024-02-09T00:13:45.071Z,8.70
2024-02-09T00:16:14.266Z,8.27
2024-02-09T00:18:42.354Z,8.07
2024-02-09T00:21:12.792Z,9.02
2024-02-09T00:23:41.528Z,8.57
2024-02-09T00:26:10.667Z,8.70
2024-02-09T00:28:39.145Z,9.63
2024-02-09T00:31:07.608Z,9.48
2024-02-09T00:33:35.743Z,9.55
2024-02-09T00:36:04.253Z,8.52
2024-02-09T00:38:37.079Z,9.07
2024-02-09T00:41:06.745Z,8.80
2024-02-09T00:43:35.180Z,10.15
2024-02-09T00:46:03.557Z,9.43
2024-02-09T00:48:31.857Z,10.32
2024-02-09T00:51:00.192Z,11.13
2024-02-09T00:53:28.198Z,10.10
2024-02-09T00:55:56.521Z,10.15
2024-02-09T00:58:24.426Z,10.05
2024-02-09T01:00:53.060Z,9.75
2024-02-09T01:03:21.812Z,10.25
2024-02-09T01:05:52.242Z,10.25
2024-02-09T01:08:20.450Z,9.70
2024-02-09T01:10:48.966Z,10.65
2024-02-09T01:13:35.459Z,9.35
2024-02-09T01:16:22.714Z,9.52
2024-02-09T01:19:09.455Z,10.05
2024-02-09T01:21:56.429Z,10.10
2024-02-09T01:24:43.172Z,10.10
2024-02-09T01:27:29.722Z,9.70
2024-02-09T01:30:16.089Z,10.35
2024-02-09T01:33:03.033Z,9.80
2024-02-09T01:35:49.494Z,10.65
2024-02-09T01:38:36.299Z,10.43
2024-02-09T01:41:22.523Z,9.93
2024-02-09T01:46:56.433Z,9.35
2024-02-09T01:49:43.768Z,9.60
2024-02-09T01:55:17.396Z,9.20
2024-02-09T01:58:05.013Z,9.05
2024-02-09T02:00:51.825Z,8.95
2024-02-09T02:03:40.828Z,8.77
2024-02-09T02:06:28.564Z,9.15
2024-02-09T02:09:14.914Z,8.95
2024-02-09T02:14:47.981Z,8.68
2024-02-09T02:17:35.558Z,8.57
2024-02-09T02:20:22.606Z,8.77
2024-02-09T02:23:23.079Z,9.07
2024-02-09T02:26:09.741Z,9.55
2024-02-09T02:28:56.546Z,8.80
2024-02-09T02:31:43.186Z,9.35
2024-02-09T02:34:30.074Z,9.38
2024-02-09T02:37:16.342Z,9.60
2024-02-09T02:40:03.811Z,9.82
2024-02-09T02:42:32.097Z,9.27
2024-02-09T02:45:00.454Z,9.27
2024-02-09T02:47:28.546Z,9.73
2024-02-09T02:50:15.281Z,9.75
2024-02-09T02:53:01.874Z,10.63
2024-02-09T02:55:48.637Z,9.73
2024-02-09T02:58:35.425Z,9.80
2024-02-09T03:01:22.084Z,10.35
2024-02-09T03:04:08.948Z,10.63
2024-02-09T03:06:51.134Z,10.15
2024-02-09T03:09:25.472Z,10.60
2024-02-09T03:11:53.933Z,9.57
2024-02-09T03:14:23.469Z,9.98
2024-02-09T03:16:51.830Z,9.63
2024-02-09T03:19:20.483Z,10.13
2024-02-09T03:21:49.068Z,9.82
2024-02-09T03:24:18.212Z,10.07
2024-02-09T03:26:46.628Z,11.00
2024-02-09T03:29:14.549Z,10.90
2024-02-09T03:31:44.738Z,10.48
2024-02-09T03:34:13.364Z,10.20
2024-02-09T03:36:43.227Z,9.82
2024-02-09T03:39:11.180Z,9.18
2024-02-09T03:41:39.751Z,8.02
2024-02-09T03:44:07.957Z,10.07
2024-02-09T03:46:36.319Z,10.70
2024-02-09T03:49:06.526Z,9.68
2024-02-09T03:51:36.700Z,9.30
2024-02-09T03:54:04.928Z,10.75
2024-02-09T03:56:33.419Z,10.35
2024-02-09T03:59:01.382Z,10.15
2024-02-09T04:01:29.976Z,11.30
2024-02-09T04:03:58.029Z,11.30
2024-02-09T04:06:26.662Z,10.00
2024-02-09T04:08:56.045Z,11.85
2024-02-09T04:11:25.433Z,12.18
2024-02-09T04:13:54.085Z,11.55
2024-02-09T04:16:22.915Z,11.52
2024-02-09T04:18:51.119Z,11.55
2024-02-09T04:21:19.530Z,12.32
2024-02-09T04:23:48.432Z,11.10
2024-02-09T04:26:16.771Z,13.27
2024-02-09T04:28:44.999Z,11.95
2024-02-09T04:31:13.411Z,12.52
2024-02-09T04:33:42.581Z,10.93
2024-02-09T04:36:12.184Z,11.23
2024-02-09T04:38:42.509Z,10.45
2024-02-09T04:41:11.832Z,12.48
2024-02-09T04:43:39.814Z,9.80
2024-02-09T04:46:08.276Z,9.43
2024-02-09T04:48:36.426Z,9.02
2024-02-09T04:51:08.929Z,10.65
2024-02-09T04:53:41.238Z,11.65
2024-02-09T04:56:11.374Z,11.40
2024-02-09T04:58:39.579Z,11.23
2024-02-09T05:01:07.934Z,11.18
2024-02-09T05:03:36.414Z,11.52
2024-02-09T05:06:05.247Z,10.57
2024-02-09T05:08:45.398Z,12.20
2024-02-09T05:11:14.201Z,12.25
2024-02-09T05:13:43.002Z,12.45
2024-02-09T05:16:11.323Z,13.40
2024-02-09T05:18:39.436Z,12.93
2024-02-09T05:21:08.408Z,12.00
2024-02-09T05:23:36.811Z,12.00
2024-02-09T05:26:06.628Z,11.73
2024-02-09T05:28:40.762Z,11.70
2024-02-09T05:31:17.320Z,11.07
2024-02-09T05:33:46.194Z,11.35
2024-02-09T05:36:25.075Z,11.23
2024-02-09T05:38:55.535Z,11.13
2024-02-09T05:41:23.848Z,10.10
2024-02-09T05:43:59.148Z,8.30
2024-02-09T05:46:28.027Z,8.45
2024-02-09T05:48:57.690Z,9.27
2024-02-09T05:51:26.677Z,8.77
2024-02-09T05:53:54.670Z,8.90
2024-02-09T05:56:27.617Z,8.88
2024-02-09T05:59:00.266Z,8.63
2024-02-09T06:01:33.010Z,9.70
2024-02-09T06:04:01.407Z,9.35
2024-02-09T06:09:15.355Z,10.15
2024-02-09T06:11:43.581Z,10.90
2024-02-09T06:14:12.496Z,9.80
2024-02-09T06:16:40.964Z,9.82
2024-02-09T06:19:09.884Z,11.90
2024-02-09T06:21:42.195Z,12.88
2024-02-09T06:24:10.594Z,13.77
2024-02-09T06:26:39.866Z,13.75
2024-02-09T06:29:11.989Z,14.05
2024-02-09T06:31:44.155Z,12.88
2024-02-09T06:34:12.491Z,13.38
2024-02-09T06:36:41.236Z,12.77
2024-02-09T06:39:10.865Z,14.10
2024-02-09T06:41:39.306Z,14.57
2024-02-09T06:44:07.190Z,15.10
2024-02-09T06:46:37.802Z,15.25
2024-02-09T06:49:05.861Z,15.15
2024-02-09T06:51:34.376Z,15.18
2024-02-09T06:54:02.447Z,13.90
2024-02-09T06:56:31.622Z,15.25
2024-02-09T06:59:03.107Z,14.73
2024-02-09T07:01:32.719Z,15.77
2024-02-09T07:04:02.921Z,15.65
2024-02-09T07:06:31.452Z,15.13
2024-02-09T07:08:59.775Z,14.18
2024-02-09T07:11:28.154Z,13.57
2024-02-09T07:13:56.133Z,14.90
2024-02-09T07:16:24.535Z,13.48
2024-02-09T07:18:52.522Z,15.43
2024-02-09T07:21:21.806Z,15.15
2024-02-09T07:23:52.612Z,16.25
2024-02-09T07:26:26.499Z,15.40
2024-02-09T07:28:58.707Z,14.98
2024-02-09T07:31:27.276Z,14.30
2024-02-09T07:33:56.999Z,14.15
2024-02-09T07:36:28.613Z,13.57
2024-02-09T07:38:57.875Z,13.45
2024-02-09T07:41:26.130Z,13.55
2024-02-09T07:43:54.077Z,13.32
2024-02-09T07:46:22.443Z,13.38
2024-02-09T07:48:50.894Z,13.48
2024-02-09T07:51:21.836Z,13.35
2024-02-09T07:53:54.515Z,14.65
2024-02-09T07:56:26.677Z,14.80
2024-02-09T07:58:55.581Z,13.60
2024-02-09T08:01:24.200Z,12.68
2024-02-09T08:03:57.632Z,12.77
2024-02-09T08:06:26.116Z,11.57
2024-02-09T08:08:56.817Z,12.25
2024-02-09T08:11:25.147Z,12.25
2024-02-09T08:13:53.424Z,11.75
2024-02-09T08:16:24.721Z,12.40
2024-02-09T08:18:53.215Z,10.15
2024-02-09T08:21:25.258Z,11.13
2024-02-09T08:23:53.785Z,10.55
2024-02-09T08:26:25.308Z,11.88
2024-02-09T08:28:53.584Z,12.32
2024-02-09T08:31:22.236Z,12.65
2024-02-09T08:33:52.944Z,11.07
2024-02-09T08:36:24.643Z,11.30
2024-02-09T08:38:53.002Z,10.43
2024-02-09T08:41:21.458Z,10.73
2024-02-09T08:43:49.795Z,11.07
2024-02-09T08:46:18.486Z,10.43
2024-02-09T08:48:46.795Z,10.18
2024-02-09T08:51:15.326Z,10.40
2024-02-09T08:53:47.187Z,10.02
2024-02-09T08:56:17.023Z,9.93
2024-02-09T08:58:45.884Z,9.52
2024-02-09T09:01:14.606Z,9.20
2024-02-09T09:03:42.978Z,9.68
2024-02-09T09:06:11.474Z,10.00
2024-02-09T09:08:39.356Z,9.70
2024-02-09T09:11:07.620Z,8.63
2024-02-09T09:13:35.614Z,9.38
2024-02-09T09:16:04.036Z,10.02
2024-02-09T09:18:32.254Z,10.57
2024-02-09T09:21:00.870Z,10.27
2024-02-09T09:23:30.171Z,10.60
2024-02-09T09:26:01.046Z,10.18
2024-02-09T09:28:30.267Z,10.25
2024-02-09T09:30:58.867Z,9.50
2024-02-09T09:33:26.927Z,9.45
2024-02-09T09:35:56.886Z,8.55
2024-02-09T09:38:24.951Z,8.10
2024-02-09T09:40:56.255Z,8.32
2024-02-09T09:43:26.504Z,7.10
2024-02-09T09:45:57.964Z,7.15
2024-02-09T09:48:28.499Z,7.18
2024-02-09T09:50:58.072Z,6.72
2024-02-09T09:53:38.112Z,5.80
2024-02-09T09:56:12.099Z,5.93
2024-02-09T09:58:42.498Z,5.75
2024-02-09T10:01:13.508Z,6.03
2024-02-09T10:03:44.946Z,6.85
2024-02-09T10:06:14.745Z,6.30
2024-02-09T10:08:42.949Z,6.40
2024-02-09T10:11:11.341Z,6.80
2024-02-09T10:13:42.413Z,6.82
2024-02-09T10:16:10.939Z,6.57
2024-02-09T10:18:40.111Z,6.72
2024-02-09T10:21:09.983Z,7.25
2024-02-09T10:23:38.228Z,7.28
2024-02-09T10:26:14.072Z,7.13
2024-02-09T10:28:43.582Z,7.50
2024-02-09T10:31:15.499Z,7.03
2024-02-09T10:33:43.617Z,7.10
2024-02-09T10:36:13.283Z,6.72
2024-02-09T10:38:41.541Z,7.05
2024-02-09T10:41:12.675Z,6.80
2024-02-09T10:43:43.327Z,6.45
2024-02-09T10:46:14.332Z,6.70
2024-02-09T10:48:42.695Z,7.32
2024-02-09T10:51:12.439Z,8.07
2024-02-09T10:53:56.996Z,8.10
2024-02-09T10:56:28.740Z,6.03
2024-02-09T10:58:57.905Z,6.55
2024-02-09T11:01:29.118Z,7.80
2024-02-09T11:03:59.639Z,6.07
2024-02-09T11:06:28.354Z,6.00
2024-02-09T11:08:57.753Z,6.25
2024-02-09T11:11:29.019Z,6.20
2024-02-09T11:14:11.689Z,5.82
2024-02-09T11:16:52.174Z,7.20
2024-02-09T11:19:21.172Z,5.90
2024-02-09T11:21:54.362Z,6.63
2024-02-09T11:24:22.442Z,6.25
2024-02-09T11:26:53.980Z,5.88
2024-02-09T11:29:24.125Z,6.15
2024-02-09T11:31:54.662Z,6.10
2024-02-09T11:34:25.477Z,6.10
2024-02-09T11:36:55.687Z,6.47
2024-02-09T11:39:23.917Z,6.38
2024-02-09T11:41:53.258Z,6.50
2024-02-09T11:44:22.696Z,6.32
2024-02-09T11:46:55.144Z,6.90
2024-02-09T11:49:25.436Z,5.95
2024-02-09T11:52:05.429Z,6.47
2024-02-09T11:54:34.766Z,6.78
2024-02-09T11:57:07.216Z,6.35
2024-02-09T11:59:38.056Z,6.47
2024-02-09T12:02:08.114Z,6.15
2024-02-09T12:04:36.872Z,6.40
2024-02-09T12:07:05.872Z,6.03
2024-02-09T12:09:34.469Z,6.25
2024-02-09T12:12:02.755Z,6.32
2024-02-09T12:14:30.876Z,5.70
2024-02-09T12:16:59.290Z,6.60
2024-02-09T12:19:28.180Z,6.65
2024-02-09T12:22:01.171Z,5.85
2024-02-09T12:24:29.253Z,6.03
2024-02-09T12:26:58.461Z,5.85
2024-02-09T12:29:26.779Z,6.35
2024-02-09T12:31:55.818Z,6.13
2024-02-09T12:34:24.427Z,5.72
2024-02-09T12:37:00.884Z,5.30
2024-02-09T12:39:29.719Z,5.72
2024-02-09T12:42:02.722Z,5.22
2024-02-09T12:44:32.121Z,5.22
2024-02-09T12:47:06.894Z,5.22
2024-02-09T12:49:39.018Z,5.22
2024-02-09T12:52:12.793Z,5.70
2024-02-09T12:54:40.980Z,6.25
2024-02-09T12:57:09.702Z,5.18
2024-02-09T12:59:41.589Z,5.85
2024-02-09T13:02:11.944Z,6.38
2024-02-09T13:04:40.581Z,5.18
2024-02-09T13:07:09.932Z,5.07
2024-02-09T13:09:38.122Z,6.07
2024-02-09T13:12:07.914Z,5.30
2024-02-09T13:14:38.858Z,5.03
2024-02-09T13:17:08.543Z,4.75
2024-02-09T13:19:36.832Z,5.45
2024-02-09T13:22:06.509Z,5.15
2024-02-09T13:24:34.915Z,5.25
2024-02-09T13:27:03.130Z,5.35
2024-02-09T13:29:32.972Z,8.07
2024-02-09T13:32:01.578Z,10.20
2024-02-09T13:34:29.751Z,9.43
2024-02-09T13:36:58.484Z,6.72
2024-02-09T13:39:28.311Z,7.13
2024-02-09T13:41:56.827Z,5.95
2024-02-09T13:44:24.720Z,5.57
2024-02-09T13:46:53.793Z,6.55
2024-02-09T13:49:21.842Z,4.90
2024-02-09T13:51:50.192Z,5.28
2024-02-09T13:54:18.681Z,5.20
2024-02-09T13:56:47.050Z,4.95
2024-02-09T13:59:15.898Z,5.15
2024-02-09T14:01:46.052Z,5.25
2024-02-09T14:04:16.413Z,5.28
2024-02-09T14:06:45.128Z,5.70
2024-02-09T14:09:13.037Z,5.30
2024-02-09T14:11:45.034Z,5.25
2024-02-09T14:14:13.869Z,6.10
2024-02-09T14:16:42.274Z,9.70
2024-02-09T14:19:10.777Z,10.30
2024-02-09T14:21:40.082Z,5.88
2024-02-09T14:24:08.900Z,5.50
2024-02-09T14:26:37.238Z,6.22
2024-02-09T14:29:05.618Z,5.45
2024-02-09T14:31:34.053Z,6.15
2024-02-09T14:34:02.107Z,6.05
2024-02-09T14:36:30.669Z,5.75
2024-02-09T14:38:58.638Z,6.05
2024-02-09T14:41:28.858Z,5.80
2024-02-09T14:43:56.960Z,5.68
2024-02-09T14:46:26.793Z,5.50
2024-02-09T14:48:54.814Z,5.80
2024-02-09T14:51:24.210Z,5.90
2024-02-09T14:53:52.362Z,5.65
2024-02-09T14:56:20.976Z,5.72
2024-02-09T14:58:49.022Z,4.97
2024-02-09T15:01:17.712Z,5.20
2024-02-09T15:03:48.235Z,4.78
2024-02-09T15:06:18.918Z,4.90
2024-02-09T15:08:50.483Z,4.95
2024-02-09T15:11:26.437Z,5.80
2024-02-09T15:13:54.531Z,5.47
2024-02-09T15:16:22.851Z,4.45
2024-02-09T15:18:51.319Z,5.03
2024-02-09T15:21:20.121Z,4.43
2024-02-09T15:23:49.050Z,4.97
2024-02-09T15:26:18.015Z,4.90
2024-02-09T15:28:46.474Z,5.25
2024-02-09T15:31:15.929Z,5.18
2024-02-09T15:33:45.232Z,4.90
2024-02-09T15:36:13.534Z,4.90
2024-02-09T15:38:43.238Z,5.00
2024-02-09T15:41:20.875Z,4.50
2024-02-09T15:43:48.831Z,4.75
2024-02-09T15:46:17.856Z,4.95
2024-02-09T15:48:48.220Z,4.35
2024-02-09T15:51:27.338Z,4.50
2024-02-09T15:53:58.679Z,4.88
2024-02-09T15:56:33.936Z,4.75
2024-02-09T15:59:03.694Z,4.75
2024-02-09T16:01:34.324Z,4.57
2024-02-09T16:04:02.480Z,4.80
2024-02-09T16:06:31.054Z,4.75
2024-02-09T16:09:01.110Z,4.53
2024-02-09T16:11:33.555Z,5.07
2024-02-09T16:14:02.852Z,4.57
2024-02-09T16:16:32.607Z,4.50
2024-02-09T16:19:04.764Z,5.18
2024-02-09T16:21:33.768Z,4.18
2024-02-09T16:24:04.424Z,4.75
2024-02-09T16:26:48.454Z,5.00
2024-02-09T16:29:31.612Z,4.38
2024-02-09T16:32:00.016Z,4.85
2024-02-09T16:34:31.074Z,4.85
2024-02-09T16:37:01.158Z,5.10
2024-02-09T16:39:30.016Z,5.07
2024-02-09T16:41:58.601Z,5.30
2024-02-09T16:44:27.781Z,5.22
2024-02-09T16:46:57.507Z,5.20
2024-02-09T16:49:27.048Z,4.50
2024-02-09T16:51:55.995Z,5.03
2024-02-09T16:54:25.014Z,5.55
2024-02-09T16:56:54.281Z,5.47
2024-02-09T16:59:23.496Z,5.30
2024-02-09T17:01:52.320Z,5.72
2024-02-09T17:04:22.010Z,5.53
2024-02-09T17:06:50.936Z,5.70
2024-02-09T17:09:23.537Z,6.07
2024-02-09T17:11:53.412Z,5.97
2024-02-09T17:14:21.622Z,5.85
2024-02-09T17:16:59.489Z,6.15
2024-02-09T17:19:30.293Z,5.90
2024-02-09T17:21:59.859Z,6.10
2024-02-09T17:24:28.118Z,6.15
2024-02-09T17:26:59.340Z,6.97
2024-02-09T17:29:28.041Z,6.10
2024-02-09T17:31:57.285Z,6.28
2024-02-09T17:34:28.713Z,6.50
2024-02-09T17:36:57.462Z,6.75
2024-02-09T17:39:27.876Z,6.45
2024-02-09T17:41:56.484Z,6.20
2024-02-09T17:44:24.600Z,5.43
2024-02-09T17:46:53.884Z,5.70
2024-02-09T17:49:24.416Z,5.47
2024-02-09T17:51:52.800Z,5.43
2024-02-09T17:54:20.804Z,5.60
2024-02-09T17:56:49.300Z,5.82
2024-02-09T17:59:17.297Z,5.32
2024-02-09T18:01:45.930Z,5.75
2024-02-09T18:04:14.168Z,5.95
2024-02-09T18:06:42.781Z,5.90
2024-02-09T18:09:14.908Z,5.80
2024-02-09T18:11:44.517Z,5.57
2024-02-09T18:14:12.428Z,6.07
2024-02-09T18:16:41.227Z,5.75
2024-02-09T18:19:12.139Z,5.57
2024-02-09T18:21:40.642Z,6.30
2024-02-09T18:24:09.091Z,8.35
2024-02-09T18:26:37.479Z,8.00
2024-02-09T18:29:05.639Z,6.93
2024-02-09T18:31:34.291Z,8.82
2024-02-09T18:34:02.470Z,9.55
2024-02-09T18:36:30.964Z,9.00
2024-02-09T18:38:58.855Z,9.25
2024-02-09T18:41:27.190Z,9.38
2024-02-09T18:43:55.351Z,8.75
2024-02-09T18:46:24.109Z,8.52
2024-02-09T18:48:51.996Z,8.00
2024-02-09T18:51:20.547Z,7.65
2024-02-09T18:53:48.447Z,8.60
2024-02-09T18:56:18.007Z,8.18
2024-02-09T18:58:47.112Z,7.13
2024-02-09T19:01:15.463Z,8.05
2024-02-09T19:03:44.275Z,8.00
2024-02-09T19:06:12.708Z,7.25
2024-02-09T19:08:40.879Z,7.72
2024-02-09T19:11:09.953Z,6.70
2024-02-09T19:13:37.967Z,6.38
2024-02-09T19:16:08.757Z,6.15
2024-02-09T19:18:37.660Z,5.85
2024-02-09T19:21:08.033Z,7.70
2024-02-09T19:23:36.168Z,7.45
2024-02-09T19:26:06.253Z,8.23
2024-02-09T19:28:34.352Z,7.47
2024-02-09T19:31:05.858Z,7.25
2024-02-09T19:33:34.484Z,7.85
2024-02-09T19:36:04.199Z,7.35
2024-02-09T19:38:32.157Z,7.05
2024-02-09T19:41:02.466Z,7.28
2024-02-09T19:43:31.454Z,7.47
2024-02-09T19:45:59.842Z,8.30
2024-02-09T19:48:28.016Z,7.80
2024-02-09T19:50:56.609Z,7.35
2024-02-09T19:53:28.639Z,7.53
2024-02-09T19:55:57.215Z,7.07
2024-02-09T19:58:25.686Z,6.90
2024-02-09T20:00:54.265Z,6.05
2024-02-09T20:03:25.205Z,6.00
2024-02-09T20:05:55.062Z,7.15
2024-02-09T20:08:23.960Z,5.47
2024-02-09T20:10:54.033Z,7.38
2024-02-09T20:13:22.457Z,7.20
2024-02-09T20:15:51.660Z,8.10
2024-02-09T20:18:21.682Z,8.65
2024-02-09T20:20:52.319Z,8.90
2024-02-09T20:23:20.598Z,8.65
2024-02-09T20:25:49.079Z,7.95
2024-02-09T20:28:17.106Z,7.30
2024-02-09T20:30:45.475Z,8.68
2024-02-09T20:33:13.499Z,8.05
2024-02-09T20:35:46.512Z,7.43
2024-02-09T20:38:15.323Z,7.90
2024-02-09T20:40:43.590Z,7.50
2024-02-09T20:43:11.876Z,7.55
2024-02-09T20:45:40.263Z,6.20
2024-02-09T20:48:09.473Z,5.70
2024-02-09T20:50:41.122Z,5.60
2024-02-09T20:53:09.197Z,5.60
2024-02-09T20:55:39.085Z,6.15
2024-02-09T20:58:08.713Z,5.90
2024-02-09T21:00:40.781Z,5.50
2024-02-09T21:03:10.214Z,6.25
2024-02-09T21:05:39.537Z,6.32
2024-02-09T21:08:08.306Z,6.43
2024-02-09T21:10:37.240Z,6.50
2024-02-09T21:13:05.411Z,6.35
2024-02-09T21:15:34.217Z,6.20
2024-02-09T21:18:02.963Z,6.50
2024-02-09T21:20:32.824Z,6.90
2024-02-09T21:23:01.096Z,6.20
2024-02-09T21:25:30.083Z,6.43
2024-02-09T21:27:58.031Z,6.30
2024-02-09T21:30:26.970Z,6.45
2024-02-09T21:33:00.386Z,6.45
2024-02-09T21:35:31.779Z,5.68
2024-02-09T21:38:01.664Z,5.80
2024-02-09T21:40:32.915Z,5.50
2024-02-09T21:43:02.403Z,5.20
2024-02-09T21:45:31.265Z,5.25
2024-02-09T21:47:59.534Z,5.43
2024-02-09T21:50:29.440Z,5.60
2024-02-09T21:52:58.691Z,5.57
2024-02-09T21:55:29.915Z,5.45
2024-02-09T21:57:58.254Z,5.25
2024-02-09T22:00:26.683Z,5.28
2024-02-09T22:06:40.029Z,4.85
2024-02-09T22:09:08.129Z,5.70
2024-02-09T22:11:36.665Z,6.28
2024-02-09T22:14:12.272Z,5.70
2024-02-09T22:16:47.805Z,5.55
2024-02-09T22:19:18.192Z,6.13
2024-02-09T22:21:46.716Z,6.32
2024-02-09T22:24:19.126Z,6.35
2024-02-09T22:26:48.328Z,6.93
2024-02-09T22:29:24.087Z,7.40
2024-02-09T22:31:52.538Z,6.30
2024-02-09T22:34:26.398Z,6.72
2024-02-09T22:36:54.794Z,6.63
2024-02-09T22:39:26.106Z,7.05
2024-02-09T22:42:03.408Z,7.00
2024-02-09T22:44:32.462Z,6.93
2024-02-09T22:47:01.640Z,7.20
2024-02-09T22:49:33.122Z,7.30
2024-02-09T22:52:02.819Z,7.25
2024-02-09T22:54:34.881Z,8.20
2024-02-09T22:57:03.191Z,8.45
2024-02-09T22:59:39.195Z,8.93
2024-02-09T23:02:07.991Z,9.10
2024-02-09T23:04:37.714Z,8.50
2024-02-09T23:07:08.277Z,9.07
2024-02-09T23:09:36.428Z,8.65
2024-02-09T23:12:05.124Z,8.18
2024-02-09T23:14:34.557Z,8.20
2024-02-09T23:17:05.039Z,8.40
2024-02-09T23:19:33.157Z,7.95
2024-02-09T23:22:03.353Z,8.18
2024-02-09T23:24:31.368Z,8.02
2024-02-09T23:27:01.714Z,8.50
2024-02-09T23:29:29.827Z,8.13
2024-02-09T23:32:00.065Z,7.82
2024-02-09T23:34:33.294Z,7.85
2024-02-09T23:37:03.279Z,8.02
2024-02-09T23:39:33.348Z,8.38
2024-02-09T23:42:02.155Z,7.88
2024-02-09T23:44:32.920Z,7.85
2024-02-09T23:47:01.622Z,8.40
2024-02-09T23:49:32.843Z,7.53
2024-02-09T23:52:02.224Z,7.22
2024-02-09T23:54:31.133Z,7.72
2024-02-09T23:56:59.557Z,8.50
2024-02-09T23:59:27.464Z,7.82
